sensor_id;sensor_type;location;lat;lon;timestamp;P1;durP1;ratioP1;P2;durP2;ratioP2
72319;SDS011;60269;52.502;16.732;2022-10-16T00:02:42;27.20;;;11.88;;
72319;SDS011;60269;52.502;16.732;2022-10-16T00:06:15;28.40;;;12.57;;
72319;SDS011;60269;52.502;16.732;2022-10-16T00:09:48;28.85;;;12.50;;
72319;SDS011;60269;52.502;16.732;2022-10-16T00:13:20;30.25;;;12.93;;
72319;SDS011;60269;52.502;16.732;2022-10-16T00:16:52;26.83;;;11.88;;
72319;SDS011;60269;52.502;16.732;2022-10-16T00:20:24;26.57;;;11.93;;
72319;SDS011;60269;52.502;16.732;2022-10-16T00:23:59;29.25;;;12.02;;
72319;SDS011;60269;52.502;16.732;2022-10-16T00:27:34;25.42;;;10.98;;
72319;SDS011;60269;52.502;16.732;2022-10-16T00:31:07;24.52;;;11.48;;
72319;SDS011;60269;52.502;16.732;2022-10-16T00:34:41;25.03;;;10.07;;
72319;SDS011;60269;52.502;16.732;2022-10-16T00:38:12;23.38;;;9.70;;
72319;SDS011;60269;52.502;16.732;2022-10-16T00:41:44;23.38;;;10.25;;
72319;SDS011;60269;52.502;16.732;2022-10-16T00:45:16;22.38;;;9.80;;
72319;SDS011;60269;52.502;16.732;2022-10-16T00:48:56;22.63;;;10.17;;
72319;SDS011;60269;52.502;16.732;2022-10-16T00:52:32;20.83;;;10.27;;
72319;SDS011;60269;52.502;16.732;2022-10-16T00:56:04;22.48;;;8.63;;
72319;SDS011;60269;52.502;16.732;2022-10-16T00:59:38;18.10;;;8.27;;
72319;SDS011;60269;52.502;16.732;2022-10-16T01:07:10;19.60;;;9.43;;
72319;SDS011;60269;52.502;16.732;2022-10-16T01:10:52;21.98;;;9.05;;
72319;SDS011;60269;52.502;16.732;2022-10-16T01:14:34;17.70;;;8.13;;
72319;SDS011;60269;52.502;16.732;2022-10-16T01:18:30;16.03;;;7.50;;
72319;SDS011;60269;52.502;16.732;2022-10-16T01:22:25;21.20;;;8.32;;
72319;SDS011;60269;52.502;16.732;2022-10-16T01:30:00;17.43;;;7.47;;
72319;SDS011;60269;52.502;16.732;2022-10-16T01:33:53;17.37;;;7.13;;
72319;SDS011;60269;52.502;16.732;2022-10-16T01:38:01;17.40;;;7.65;;
72319;SDS011;60269;52.502;16.732;2022-10-16T01:41:45;15.63;;;6.45;;
72319;SDS011;60269;52.502;16.732;2022-10-16T01:45:20;17.43;;;7.23;;
72319;SDS011;60269;52.502;16.732;2022-10-16T01:48:53;16.77;;;7.07;;
72319;SDS011;60269;52.502;16.732;2022-10-16T01:52:26;15.15;;;7.15;;
72319;SDS011;60269;52.502;16.732;2022-10-16T01:56:00;18.55;;;7.40;;
72319;SDS011;60269;52.502;16.732;2022-10-16T01:59:38;16.33;;;6.47;;
72319;SDS011;60269;52.502;16.732;2022-10-16T02:03:15;16.80;;;7.83;;
72319;SDS011;60269;52.502;16.732;2022-10-16T02:06:49;15.52;;;6.88;;
72319;SDS011;60269;52.502;16.732;2022-10-16T02:10:21;15.05;;;6.70;;
72319;SDS011;60269;52.502;16.732;2022-10-16T02:13:58;16.33;;;7.53;;
72319;SDS011;60269;52.502;16.732;2022-10-16T02:17:34;17.80;;;7.27;;
72319;SDS011;60269;52.502;16.732;2022-10-16T02:28:45;14.40;;;6.30;;
72319;SDS011;60269;52.502;16.732;2022-10-16T02:32:21;17.02;;;7.47;;
72319;SDS011;60269;52.502;16.732;2022-10-16T02:35:56;17.30;;;7.27;;
72319;SDS011;60269;52.502;16.732;2022-10-16T02:39:28;15.43;;;7.30;;
72319;SDS011;60269;52.502;16.732;2022-10-16T02:43:02;16.85;;;6.53;;
72319;SDS011;60269;52.502;16.732;2022-10-16T02:46:35;16.57;;;7.37;;
72319;SDS011;60269;52.502;16.732;2022-10-16T02:50:07;16.27;;;6.87;;
72319;SDS011;60269;52.502;16.732;2022-10-16T02:53:39;15.50;;;7.50;;
72319;SDS011;60269;52.502;16.732;2022-10-16T02:57:10;15.80;;;7.35;;
72319;SDS011;60269;52.502;16.732;2022-10-16T03:00:43;18.43;;;6.90;;
72319;SDS011;60269;52.502;16.732;2022-10-16T03:04:15;14.57;;;7.00;;
72319;SDS011;60269;52.502;16.732;2022-10-16T03:07:47;14.80;;;6.70;;
72319;SDS011;60269;52.502;16.732;2022-10-16T03:11:18;18.83;;;7.03;;
72319;SDS011;60269;52.502;16.732;2022-10-16T03:14:50;17.20;;;7.73;;
72319;SDS011;60269;52.502;16.732;2022-10-16T03:18:22;15.37;;;7.03;;
72319;SDS011;60269;52.502;16.732;2022-10-16T03:21:54;18.05;;;7.68;;
72319;SDS011;60269;52.502;16.732;2022-10-16T03:25:26;20.00;;;8.65;;
72319;SDS011;60269;52.502;16.732;2022-10-16T03:28:58;19.80;;;8.13;;
72319;SDS011;60269;52.502;16.732;2022-10-16T03:32:30;16.67;;;7.83;;
72319;SDS011;60269;52.502;16.732;2022-10-16T03:36:02;16.80;;;7.85;;
72319;SDS011;60269;52.502;16.732;2022-10-16T03:39:34;19.58;;;7.82;;
72319;SDS011;60269;52.502;16.732;2022-10-16T03:43:05;16.50;;;7.40;;
72319;SDS011;60269;52.502;16.732;2022-10-16T03:46:37;19.73;;;9.13;;
72319;SDS011;60269;52.502;16.732;2022-10-16T03:50:09;21.98;;;9.15;;
72319;SDS011;60269;52.502;16.732;2022-10-16T03:53:41;19.27;;;8.32;;
72319;SDS011;60269;52.502;16.732;2022-10-16T03:57:13;17.67;;;7.80;;
72319;SDS011;60269;52.502;16.732;2022-10-16T04:00:45;18.73;;;8.60;;
72319;SDS011;60269;52.502;16.732;2022-10-16T04:04:17;18.40;;;7.40;;
72319;SDS011;60269;52.502;16.732;2022-10-16T04:07:49;18.23;;;7.97;;
72319;SDS011;60269;52.502;16.732;2022-10-16T04:11:21;19.07;;;8.67;;
72319;SDS011;60269;52.502;16.732;2022-10-16T04:14:53;18.40;;;7.80;;
72319;SDS011;60269;52.502;16.732;2022-10-16T04:18:25;22.63;;;9.10;;
72319;SDS011;60269;52.502;16.732;2022-10-16T04:21:58;17.65;;;8.52;;
72319;SDS011;60269;52.502;16.732;2022-10-16T04:25:30;18.38;;;8.40;;
72319;SDS011;60269;52.502;16.732;2022-10-16T04:29:02;18.97;;;9.17;;
72319;SDS011;60269;52.502;16.732;2022-10-16T04:32:34;17.95;;;8.43;;
72319;SDS011;60269;52.502;16.732;2022-10-16T04:36:06;21.08;;;9.30;;
72319;SDS011;60269;52.502;16.732;2022-10-16T04:39:38;21.95;;;9.20;;
72319;SDS011;60269;52.502;16.732;2022-10-16T04:43:09;19.23;;;8.97;;
72319;SDS011;60269;52.502;16.732;2022-10-16T04:46:42;23.73;;;8.75;;
72319;SDS011;60269;52.502;16.732;2022-10-16T04:50:13;18.48;;;8.00;;
72319;SDS011;60269;52.502;16.732;2022-10-16T04:53:45;19.00;;;8.60;;
72319;SDS011;60269;52.502;16.732;2022-10-16T04:57:17;21.50;;;9.37;;
72319;SDS011;60269;52.502;16.732;2022-10-16T05:00:49;20.17;;;9.18;;
72319;SDS011;60269;52.502;16.732;2022-10-16T05:04:20;20.58;;;9.07;;
72319;SDS011;60269;52.502;16.732;2022-10-16T05:07:52;19.20;;;8.18;;
72319;SDS011;60269;52.502;16.732;2022-10-16T05:11:24;20.47;;;8.97;;
72319;SDS011;60269;52.502;16.732;2022-10-16T05:14:56;22.02;;;9.10;;
72319;SDS011;60269;52.502;16.732;2022-10-16T05:18:30;21.17;;;9.38;;
72319;SDS011;60269;52.502;16.732;2022-10-16T05:22:02;21.73;;;9.83;;
72319;SDS011;60269;52.502;16.732;2022-10-16T05:25:34;26.40;;;11.60;;
72319;SDS011;60269;52.502;16.732;2022-10-16T05:29:05;23.65;;;10.20;;
72319;SDS011;60269;52.502;16.732;2022-10-16T05:32:37;20.40;;;9.30;;
72319;SDS011;60269;52.502;16.732;2022-10-16T05:36:09;23.40;;;10.60;;
72319;SDS011;60269;52.502;16.732;2022-10-16T05:39:42;19.33;;;9.53;;
72319;SDS011;60269;52.502;16.732;2022-10-16T05:43:13;24.88;;;10.68;;
72319;SDS011;60269;52.502;16.732;2022-10-16T05:46:45;23.88;;;10.20;;
72319;SDS011;60269;52.502;16.732;2022-10-16T05:50:17;26.77;;;10.13;;
72319;SDS011;60269;52.502;16.732;2022-10-16T05:53:49;24.73;;;9.60;;
72319;SDS011;60269;52.502;16.732;2022-10-16T05:57:21;21.63;;;10.13;;
72319;SDS011;60269;52.502;16.732;2022-10-16T06:00:56;24.10;;;10.15;;
72319;SDS011;60269;52.502;16.732;2022-10-16T06:04:29;24.23;;;9.73;;
72319;SDS011;60269;52.502;16.732;2022-10-16T06:08:00;22.60;;;10.60;;
72319;SDS011;60269;52.502;16.732;2022-10-16T06:11:33;24.00;;;10.57;;
72319;SDS011;60269;52.502;16.732;2022-10-16T06:15:05;19.50;;;9.00;;
72319;SDS011;60269;52.502;16.732;2022-10-16T06:18:37;17.47;;;8.50;;
72319;SDS011;60269;52.502;16.732;2022-10-16T06:22:09;22.87;;;9.73;;
72319;SDS011;60269;52.502;16.732;2022-10-16T06:25:41;19.92;;;9.00;;
72319;SDS011;60269;52.502;16.732;2022-10-16T06:29:13;22.00;;;9.35;;
72319;SDS011;60269;52.502;16.732;2022-10-16T06:32:45;20.60;;;9.47;;
72319;SDS011;60269;52.502;16.732;2022-10-16T06:36:17;20.07;;;8.80;;
72319;SDS011;60269;52.502;16.732;2022-10-16T06:39:50;17.92;;;8.43;;
72319;SDS011;60269;52.502;16.732;2022-10-16T06:43:23;19.38;;;8.98;;
72319;SDS011;60269;52.502;16.732;2022-10-16T06:46:56;17.27;;;8.30;;
72319;SDS011;60269;52.502;16.732;2022-10-16T06:50:27;17.30;;;8.30;;
72319;SDS011;60269;52.502;16.732;2022-10-16T06:53:59;18.13;;;8.88;;
72319;SDS011;60269;52.502;16.732;2022-10-16T06:57:34;17.45;;;7.85;;
72319;SDS011;60269;52.502;16.732;2022-10-16T07:01:06;18.58;;;8.10;;
72319;SDS011;60269;52.502;16.732;2022-10-16T07:04:38;19.30;;;8.90;;
72319;SDS011;60269;52.502;16.732;2022-10-16T07:08:10;17.77;;;8.05;;
72319;SDS011;60269;52.502;16.732;2022-10-16T07:11:42;17.15;;;8.43;;
72319;SDS011;60269;52.502;16.732;2022-10-16T07:15:14;16.60;;;7.90;;
72319;SDS011;60269;52.502;16.732;2022-10-16T07:18:46;14.70;;;7.33;;
72319;SDS011;60269;52.502;16.732;2022-10-16T07:22:19;15.95;;;8.05;;
72319;SDS011;60269;52.502;16.732;2022-10-16T07:25:54;18.02;;;7.75;;
72319;SDS011;60269;52.502;16.732;2022-10-16T07:29:26;15.05;;;8.10;;
72319;SDS011;60269;52.502;16.732;2022-10-16T07:32:59;20.33;;;7.87;;
72319;SDS011;60269;52.502;16.732;2022-10-16T07:36:30;16.90;;;7.55;;
72319;SDS011;60269;52.502;16.732;2022-10-16T07:40:02;14.88;;;6.55;;
72319;SDS011;60269;52.502;16.732;2022-10-16T07:43:35;16.10;;;6.75;;
72319;SDS011;60269;52.502;16.732;2022-10-16T07:47:07;13.67;;;7.20;;
72319;SDS011;60269;52.502;16.732;2022-10-16T07:50:39;13.87;;;5.80;;
72319;SDS011;60269;52.502;16.732;2022-10-16T07:54:12;17.50;;;6.50;;
72319;SDS011;60269;52.502;16.732;2022-10-16T07:57:44;14.63;;;7.07;;
72319;SDS011;60269;52.502;16.732;2022-10-16T08:01:16;14.35;;;7.40;;
72319;SDS011;60269;52.502;16.732;2022-10-16T08:04:49;14.07;;;6.37;;
72319;SDS011;60269;52.502;16.732;2022-10-16T08:08:21;15.02;;;7.40;;
72319;SDS011;60269;52.502;16.732;2022-10-16T08:11:53;12.85;;;6.35;;
72319;SDS011;60269;52.502;16.732;2022-10-16T08:15:30;12.57;;;5.63;;
72319;SDS011;60269;52.502;16.732;2022-10-16T08:19:02;13.87;;;6.50;;
72319;SDS011;60269;52.502;16.732;2022-10-16T08:22:34;13.13;;;6.40;;
72319;SDS011;60269;52.502;16.732;2022-10-16T08:26:06;13.35;;;6.88;;
72319;SDS011;60269;52.502;16.732;2022-10-16T08:29:39;13.60;;;6.00;;
72319;SDS011;60269;52.502;16.732;2022-10-16T08:33:11;14.80;;;6.97;;
72319;SDS011;60269;52.502;16.732;2022-10-16T08:36:43;14.80;;;6.53;;
72319;SDS011;60269;52.502;16.732;2022-10-16T08:40:20;14.05;;;6.80;;
72319;SDS011;60269;52.502;16.732;2022-10-16T08:51:34;13.33;;;6.20;;
72319;SDS011;60269;52.502;16.732;2022-10-16T08:58:54;12.20;;;6.32;;
72319;SDS011;60269;52.502;16.732;2022-10-16T09:02:37;13.73;;;6.10;;
72319;SDS011;60269;52.502;16.732;2022-10-16T09:10:06;12.43;;;6.53;;
72319;SDS011;60269;52.502;16.732;2022-10-16T09:21:31;10.93;;;5.20;;
72319;SDS011;60269;52.502;16.732;2022-10-16T09:25:17;12.10;;;5.50;;
72319;SDS011;60269;52.502;16.732;2022-10-16T09:28:52;10.48;;;5.30;;
72319;SDS011;60269;52.502;16.732;2022-10-16T09:32:25;11.68;;;5.20;;
72319;SDS011;60269;52.502;16.732;2022-10-16T09:35:56;11.82;;;5.25;;
72319;SDS011;60269;52.502;16.732;2022-10-16T09:39:30;11.00;;;5.00;;
72319;SDS011;60269;52.502;16.732;2022-10-16T09:47:10;10.10;;;4.93;;
72319;SDS011;60269;52.502;16.732;2022-10-16T09:50:55;10.73;;;5.68;;
72319;SDS011;60269;52.502;16.732;2022-10-16T09:54:27;10.40;;;5.28;;
72319;SDS011;60269;52.502;16.732;2022-10-16T09:57:59;9.37;;;4.50;;
72319;SDS011;60269;52.502;16.732;2022-10-16T10:01:38;9.35;;;3.85;;
72319;SDS011;60269;52.502;16.732;2022-10-16T10:05:28;10.23;;;4.10;;
72319;SDS011;60269;52.502;16.732;2022-10-16T10:09:15;9.75;;;4.15;;
72319;SDS011;60269;52.502;16.732;2022-10-16T10:12:47;10.73;;;3.90;;
72319;SDS011;60269;52.502;16.732;2022-10-16T10:16:26;8.43;;;4.07;;
72319;SDS011;60269;52.502;16.732;2022-10-16T10:19:58;8.73;;;3.85;;
72319;SDS011;60269;52.502;16.732;2022-10-16T10:23:32;8.85;;;4.28;;
72319;SDS011;60269;52.502;16.732;2022-10-16T10:27:06;7.63;;;3.72;;
72319;SDS011;60269;52.502;16.732;2022-10-16T10:30:56;7.88;;;4.05;;
72319;SDS011;60269;52.502;16.732;2022-10-16T10:35:04;6.87;;;2.20;;
72319;SDS011;60269;52.502;16.732;2022-10-16T10:38:57;7.43;;;3.47;;
72319;SDS011;60269;52.502;16.732;2022-10-16T10:42:33;6.43;;;3.28;;
72319;SDS011;60269;52.502;16.732;2022-10-16T10:46:18;6.13;;;2.75;;
72319;SDS011;60269;52.502;16.732;2022-10-16T11:05:31;6.57;;;3.10;;
72319;SDS011;60269;52.502;16.732;2022-10-16T11:12:59;9.40;;;2.97;;
72319;SDS011;60269;52.502;16.732;2022-10-16T11:20:25;5.90;;;2.30;;
72319;SDS011;60269;52.502;16.732;2022-10-16T11:24:00;7.47;;;2.07;;
72319;SDS011;60269;52.502;16.732;2022-10-16T11:27:43;5.87;;;2.37;;
72319;SDS011;60269;52.502;16.732;2022-10-16T11:31:22;5.25;;;2.28;;
72319;SDS011;60269;52.502;16.732;2022-10-16T11:34:57;6.75;;;2.72;;
72319;SDS011;60269;52.502;16.732;2022-10-16T11:39:08;5.05;;;2.40;;
72319;SDS011;60269;52.502;16.732;2022-10-16T11:42:37;6.43;;;2.07;;
72319;SDS011;60269;52.502;16.732;2022-10-16T11:46:15;8.35;;;2.45;;
72319;SDS011;60269;52.502;16.732;2022-10-16T11:49:51;5.30;;;2.50;;
72319;SDS011;60269;52.502;16.732;2022-10-16T11:57:31;5.97;;;2.75;;
72319;SDS011;60269;52.502;16.732;2022-10-16T12:08:55;6.38;;;2.70;;
72319;SDS011;60269;52.502;16.732;2022-10-16T12:12:38;7.03;;;2.80;;
72319;SDS011;60269;52.502;16.732;2022-10-16T12:19:43;7.70;;;2.53;;
72319;SDS011;60269;52.502;16.732;2022-10-16T12:23:19;5.85;;;2.45;;
72319;SDS011;60269;52.502;16.732;2022-10-16T12:26:53;6.40;;;2.60;;
72319;SDS011;60269;52.502;16.732;2022-10-16T12:30:26;6.07;;;2.70;;
72319;SDS011;60269;52.502;16.732;2022-10-16T12:34:04;7.50;;;2.13;;
72319;SDS011;60269;52.502;16.732;2022-10-16T12:37:36;7.85;;;2.63;;
72319;SDS011;60269;52.502;16.732;2022-10-16T12:41:09;6.45;;;2.67;;
72319;SDS011;60269;52.502;16.732;2022-10-16T12:44:42;6.17;;;2.27;;
72319;SDS011;60269;52.502;16.732;2022-10-16T12:48:20;6.10;;;2.33;;
72319;SDS011;60269;52.502;16.732;2022-10-16T12:52:03;6.25;;;2.05;;
72319;SDS011;60269;52.502;16.732;2022-10-16T12:55:42;5.25;;;2.42;;
72319;SDS011;60269;52.502;16.732;2022-10-16T13:07:00;5.83;;;2.50;;
72319;SDS011;60269;52.502;16.732;2022-10-16T13:10:40;5.75;;;2.50;;
72319;SDS011;60269;52.502;16.732;2022-10-16T13:18:05;5.63;;;2.53;;
72319;SDS011;60269;52.502;16.732;2022-10-16T13:25:38;5.05;;;1.80;;
72319;SDS011;60269;52.502;16.732;2022-10-16T13:29:19;6.22;;;1.80;;
72319;SDS011;60269;52.502;16.732;2022-10-16T13:33:02;4.90;;;1.67;;
72319;SDS011;60269;52.502;16.732;2022-10-16T13:36:45;4.32;;;1.50;;
72319;SDS011;60269;52.502;16.732;2022-10-16T13:40:22;4.43;;;1.50;;
72319;SDS011;60269;52.502;16.732;2022-10-16T13:43:55;4.45;;;1.30;;
72319;SDS011;60269;52.502;16.732;2022-10-16T13:47:28;4.50;;;1.85;;
72319;SDS011;60269;52.502;16.732;2022-10-16T13:54:34;5.35;;;1.60;;
72319;SDS011;60269;52.502;16.732;2022-10-16T13:58:12;4.97;;;1.53;;
72319;SDS011;60269;52.502;16.732;2022-10-16T14:01:45;4.45;;;1.15;;
72319;SDS011;60269;52.502;16.732;2022-10-16T14:05:17;4.53;;;1.38;;
72319;SDS011;60269;52.502;16.732;2022-10-16T14:08:50;4.40;;;1.20;;
72319;SDS011;60269;52.502;16.732;2022-10-16T14:12:53;6.50;;;1.90;;
72319;SDS011;60269;52.502;16.732;2022-10-16T14:16:27;4.73;;;1.60;;
72319;SDS011;60269;52.502;16.732;2022-10-16T14:20:03;4.07;;;1.70;;
72319;SDS011;60269;52.502;16.732;2022-10-16T14:23:38;4.95;;;1.90;;
72319;SDS011;60269;52.502;16.732;2022-10-16T14:27:20;7.03;;;1.63;;
72319;SDS011;60269;52.502;16.732;2022-10-16T14:30:59;6.10;;;1.90;;
72319;SDS011;60269;52.502;16.732;2022-10-16T14:34:33;6.60;;;1.97;;
72319;SDS011;60269;52.502;16.732;2022-10-16T14:38:14;5.60;;;1.90;;
72319;SDS011;60269;52.502;16.732;2022-10-16T14:41:51;6.03;;;2.33;;
72319;SDS011;60269;52.502;16.732;2022-10-16T14:45:24;6.53;;;2.20;;
72319;SDS011;60269;52.502;16.732;2022-10-16T14:49:04;5.63;;;2.30;;
72319;SDS011;60269;52.502;16.732;2022-10-16T14:52:48;4.88;;;1.67;;
72319;SDS011;60269;52.502;16.732;2022-10-16T14:56:21;9.50;;;2.50;;
72319;SDS011;60269;52.502;16.732;2022-10-16T14:59:55;4.70;;;1.75;;
72319;SDS011;60269;52.502;16.732;2022-10-16T15:03:27;5.53;;;2.20;;
72319;SDS011;60269;52.502;16.732;2022-10-16T15:06:59;4.60;;;2.00;;
72319;SDS011;60269;52.502;16.732;2022-10-16T15:10:31;6.38;;;1.83;;
72319;SDS011;60269;52.502;16.732;2022-10-16T15:14:14;4.63;;;2.08;;
72319;SDS011;60269;52.502;16.732;2022-10-16T15:17:46;4.90;;;1.80;;
72319;SDS011;60269;52.502;16.732;2022-10-16T15:21:22;5.77;;;1.97;;
72319;SDS011;60269;52.502;16.732;2022-10-16T15:24:57;4.90;;;1.87;;
72319;SDS011;60269;52.502;16.732;2022-10-16T15:28:29;10.65;;;2.40;;
72319;SDS011;60269;52.502;16.732;2022-10-16T15:32:01;4.80;;;1.52;;
72319;SDS011;60269;52.502;16.732;2022-10-16T15:35:33;4.80;;;1.73;;
72319;SDS011;60269;52.502;16.732;2022-10-16T15:39:06;6.27;;;1.57;;
72319;SDS011;60269;52.502;16.732;2022-10-16T15:42:44;5.22;;;2.10;;
72319;SDS011;60269;52.502;16.732;2022-10-16T15:46:18;6.45;;;1.85;;
72319;SDS011;60269;52.502;16.732;2022-10-16T15:49:51;6.47;;;1.90;;
72319;SDS011;60269;52.502;16.732;2022-10-16T15:53:23;6.40;;;2.15;;
72319;SDS011;60269;52.502;16.732;2022-10-16T15:56:55;6.83;;;2.13;;
72319;SDS011;60269;52.502;16.732;2022-10-16T16:00:26;6.57;;;2.15;;
72319;SDS011;60269;52.502;16.732;2022-10-16T16:03:58;6.55;;;2.63;;
72319;SDS011;60269;52.502;16.732;2022-10-16T16:07:33;8.15;;;2.78;;
72319;SDS011;60269;52.502;16.732;2022-10-16T16:11:07;9.35;;;4.07;;
72319;SDS011;60269;52.502;16.732;2022-10-16T16:14:43;9.47;;;3.70;;
72319;SDS011;60269;52.502;16.732;2022-10-16T16:18:17;8.82;;;3.15;;
72319;SDS011;60269;52.502;16.732;2022-10-16T16:21:50;9.35;;;2.63;;
72319;SDS011;60269;52.502;16.732;2022-10-16T16:25:22;7.82;;;2.50;;
72319;SDS011;60269;52.502;16.732;2022-10-16T16:28:54;7.90;;;3.50;;
72319;SDS011;60269;52.502;16.732;2022-10-16T16:32:28;7.73;;;3.10;;
72319;SDS011;60269;52.502;16.732;2022-10-16T16:36:03;7.03;;;2.83;;
72319;SDS011;60269;52.502;16.732;2022-10-16T16:39:43;7.70;;;2.85;;
72319;SDS011;60269;52.502;16.732;2022-10-16T16:43:15;7.25;;;2.42;;
72319;SDS011;60269;52.502;16.732;2022-10-16T16:46:46;10.43;;;3.60;;
72319;SDS011;60269;52.502;16.732;2022-10-16T16:50:18;7.75;;;3.05;;
72319;SDS011;60269;52.502;16.732;2022-10-16T16:53:51;7.03;;;2.72;;
72319;SDS011;60269;52.502;16.732;2022-10-16T16:57:23;7.28;;;1.88;;
72319;SDS011;60269;52.502;16.732;2022-10-16T17:00:56;7.87;;;2.30;;
72319;SDS011;60269;52.502;16.732;2022-10-16T17:04:50;6.90;;;2.33;;
72319;SDS011;60269;52.502;16.732;2022-10-16T17:08:22;6.55;;;2.05;;
72319;SDS011;60269;52.502;16.732;2022-10-16T17:11:54;6.57;;;2.40;;
72319;SDS011;60269;52.502;16.732;2022-10-16T17:15:25;7.57;;;2.60;;
72319;SDS011;60269;52.502;16.732;2022-10-16T17:19:02;10.37;;;2.77;;
72319;SDS011;60269;52.502;16.732;2022-10-16T17:22:35;10.18;;;3.85;;
72319;SDS011;60269;52.502;16.732;2022-10-16T17:26:16;12.80;;;5.05;;
72319;SDS011;60269;52.502;16.732;2022-10-16T17:29:51;9.93;;;4.05;;
72319;SDS011;60269;52.502;16.732;2022-10-16T17:33:23;11.70;;;4.13;;
72319;SDS011;60269;52.502;16.732;2022-10-16T17:36:55;14.13;;;6.68;;
72319;SDS011;60269;52.502;16.732;2022-10-16T17:40:27;20.02;;;7.63;;
72319;SDS011;60269;52.502;16.732;2022-10-16T17:43:59;28.92;;;13.02;;
72319;SDS011;60269;52.502;16.732;2022-10-16T17:47:31;33.33;;;13.60;;
72319;SDS011;60269;52.502;16.732;2022-10-16T17:51:03;19.40;;;9.93;;
72319;SDS011;60269;52.502;16.732;2022-10-16T17:54:36;15.93;;;6.70;;
72319;SDS011;60269;52.502;16.732;2022-10-16T17:58:08;14.07;;;6.20;;
72319;SDS011;60269;52.502;16.732;2022-10-16T18:01:40;11.15;;;5.38;;
72319;SDS011;60269;52.502;16.732;2022-10-16T18:05:12;10.35;;;4.82;;
72319;SDS011;60269;52.502;16.732;2022-10-16T18:08:44;12.10;;;5.53;;
72319;SDS011;60269;52.502;16.732;2022-10-16T18:12:16;13.05;;;5.88;;
72319;SDS011;60269;52.502;16.732;2022-10-16T18:15:57;12.75;;;5.68;;
72319;SDS011;60269;52.502;16.732;2022-10-16T18:19:33;12.45;;;5.70;;
72319;SDS011;60269;52.502;16.732;2022-10-16T18:23:05;12.17;;;5.73;;
72319;SDS011;60269;52.502;16.732;2022-10-16T18:26:37;13.73;;;6.45;;
72319;SDS011;60269;52.502;16.732;2022-10-16T18:30:09;15.20;;;5.97;;
72319;SDS011;60269;52.502;16.732;2022-10-16T18:33:43;13.93;;;6.10;;
72319;SDS011;60269;52.502;16.732;2022-10-16T18:37:20;14.73;;;7.57;;
72319;SDS011;60269;52.502;16.732;2022-10-16T18:40:53;13.07;;;6.30;;
72319;SDS011;60269;52.502;16.732;2022-10-16T18:44:25;13.52;;;6.05;;
72319;SDS011;60269;52.502;16.732;2022-10-16T18:47:58;14.13;;;6.35;;
72319;SDS011;60269;52.502;16.732;2022-10-16T18:51:31;15.15;;;5.50;;
72319;SDS011;60269;52.502;16.732;2022-10-16T18:55:04;14.00;;;5.23;;
72319;SDS011;60269;52.502;16.732;2022-10-16T18:58:37;11.77;;;5.50;;
72319;SDS011;60269;52.502;16.732;2022-10-16T19:02:11;17.42;;;6.22;;
72319;SDS011;60269;52.502;16.732;2022-10-16T19:05:44;12.93;;;6.03;;
72319;SDS011;60269;52.502;16.732;2022-10-16T19:09:20;16.73;;;7.60;;
72319;SDS011;60269;52.502;16.732;2022-10-16T19:12:54;16.03;;;7.40;;
72319;SDS011;60269;52.502;16.732;2022-10-16T19:16:27;14.77;;;7.30;;
72319;SDS011;60269;52.502;16.732;2022-10-16T19:20:00;18.35;;;8.00;;
72319;SDS011;60269;52.502;16.732;2022-10-16T19:23:32;16.83;;;7.18;;
72319;SDS011;60269;52.502;16.732;2022-10-16T19:27:05;14.40;;;7.13;;
72319;SDS011;60269;52.502;16.732;2022-10-16T19:30:37;15.13;;;6.63;;
72319;SDS011;60269;52.502;16.732;2022-10-16T19:34:10;14.40;;;7.47;;
72319;SDS011;60269;52.502;16.732;2022-10-16T19:37:42;16.63;;;7.63;;
72319;SDS011;60269;52.502;16.732;2022-10-16T19:41:15;14.03;;;6.90;;
72319;SDS011;60269;52.502;16.732;2022-10-16T19:44:48;17.38;;;6.85;;
72319;SDS011;60269;52.502;16.732;2022-10-16T19:48:21;20.15;;;8.32;;
72319;SDS011;60269;52.502;16.732;2022-10-16T19:51:58;17.95;;;7.45;;
72319;SDS011;60269;52.502;16.732;2022-10-16T19:55:30;20.13;;;8.60;;
72319;SDS011;60269;52.502;16.732;2022-10-16T19:59:02;16.25;;;7.75;;
72319;SDS011;60269;52.502;16.732;2022-10-16T20:02:36;17.40;;;8.55;;
72319;SDS011;60269;52.502;16.732;2022-10-16T20:06:08;15.55;;;8.60;;
72319;SDS011;60269;52.502;16.732;2022-10-16T20:09:40;18.43;;;8.93;;
72319;SDS011;60269;52.502;16.732;2022-10-16T20:13:12;18.08;;;8.35;;
72319;SDS011;60269;52.502;16.732;2022-10-16T20:16:44;13.82;;;6.88;;
72319;SDS011;60269;52.502;16.732;2022-10-16T20:20:15;17.42;;;7.95;;
72319;SDS011;60269;52.502;16.732;2022-10-16T20:23:47;12.63;;;6.13;;
72319;SDS011;60269;52.502;16.732;2022-10-16T20:27:21;14.55;;;6.95;;
72319;SDS011;60269;52.502;16.732;2022-10-16T20:30:53;15.45;;;7.55;;
72319;SDS011;60269;52.502;16.732;2022-10-16T20:34:25;13.73;;;6.82;;
72319;SDS011;60269;52.502;16.732;2022-10-16T20:37:56;14.07;;;7.07;;
72319;SDS011;60269;52.502;16.732;2022-10-16T20:41:28;14.32;;;6.75;;
72319;SDS011;60269;52.502;16.732;2022-10-16T20:45:00;15.25;;;6.90;;
72319;SDS011;60269;52.502;16.732;2022-10-16T20:48:32;14.23;;;5.97;;
72319;SDS011;60269;52.502;16.732;2022-10-16T20:52:04;14.53;;;6.97;;
72319;SDS011;60269;52.502;16.732;2022-10-16T20:55:36;15.63;;;7.22;;
72319;SDS011;60269;52.502;16.732;2022-10-16T20:59:09;14.85;;;6.55;;
72319;SDS011;60269;52.502;16.732;2022-10-16T21:02:42;14.50;;;7.03;;
72319;SDS011;60269;52.502;16.732;2022-10-16T21:06:14;15.03;;;7.40;;
72319;SDS011;60269;52.502;16.732;2022-10-16T21:09:46;15.65;;;8.07;;
72319;SDS011;60269;52.502;16.732;2022-10-16T21:13:18;21.92;;;10.23;;
72319;SDS011;60269;52.502;16.732;2022-10-16T21:16:50;21.35;;;10.23;;
72319;SDS011;60269;52.502;16.732;2022-10-16T21:20:22;21.13;;;10.93;;
72319;SDS011;60269;52.502;16.732;2022-10-16T21:23:54;18.95;;;10.15;;
72319;SDS011;60269;52.502;16.732;2022-10-16T21:27:27;19.20;;;11.15;;
72319;SDS011;60269;52.502;16.732;2022-10-16T21:31:05;18.23;;;9.65;;
72319;SDS011;60269;52.502;16.732;2022-10-16T21:34:44;19.17;;;9.03;;
72319;SDS011;60269;52.502;16.732;2022-10-16T21:38:16;18.20;;;8.98;;
72319;SDS011;60269;52.502;16.732;2022-10-16T21:41:49;21.60;;;10.40;;
72319;SDS011;60269;52.502;16.732;2022-10-16T21:45:20;26.88;;;10.55;;
72319;SDS011;60269;52.502;16.732;2022-10-16T21:48:56;16.63;;;8.40;;
72319;SDS011;60269;52.502;16.732;2022-10-16T21:52:29;19.80;;;9.52;;
72319;SDS011;60269;52.502;16.732;2022-10-16T21:56:01;20.35;;;10.02;;
72319;SDS011;60269;52.502;16.732;2022-10-16T21:59:32;21.25;;;9.70;;
72319;SDS011;60269;52.502;16.732;2022-10-16T22:03:04;23.53;;;11.17;;
72319;SDS011;60269;52.502;16.732;2022-10-16T22:06:36;26.17;;;11.00;;
72319;SDS011;60269;52.502;16.732;2022-10-16T22:10:09;28.85;;;12.18;;
72319;SDS011;60269;52.502;16.732;2022-10-16T22:13:41;22.65;;;11.70;;
72319;SDS011;60269;52.502;16.732;2022-10-16T22:17:13;25.13;;;11.57;;
72319;SDS011;60269;52.502;16.732;2022-10-16T22:20:45;25.20;;;11.32;;
72319;SDS011;60269;52.502;16.732;2022-10-16T22:24:17;25.85;;;12.68;;
72319;SDS011;60269;52.502;16.732;2022-10-16T22:27:49;32.58;;;13.65;;
72319;SDS011;60269;52.502;16.732;2022-10-16T22:31:21;26.50;;;13.30;;
72319;SDS011;60269;52.502;16.732;2022-10-16T22:34:54;27.48;;;11.98;;
72319;SDS011;60269;52.502;16.732;2022-10-16T22:38:32;24.90;;;11.95;;